createdAt,value
2023-01-13T00:00:50.608Z,99348.41
2023-01-13T00:03:17.111Z,99342.44
2023-01-13T00:05:43.606Z,99349.97
2023-01-13T00:08:10.124Z,99343.50
2023-01-13T00:10:37.810Z,99346.72
2023-01-13T00:13:05.478Z,99342.13
2023-01-13T00:15:33.234Z,99344.59
2023-01-13T00:17:59.693Z,99342.97
2023-01-13T00:20:26.177Z,99326.81
2023-01-13T00:22:52.676Z,99330.03
2023-01-13T00:25:19.185Z,99325.47
2023-01-13T00:27:45.712Z,99327.59
2023-01-13T00:30:12.713Z,99342.44
2023-01-13T00:32:39.301Z,99339.78
2023-01-13T00:35:05.955Z,99316.84
2023-01-13T00:37:32.429Z,99319.66
2023-01-13T00:39:58.992Z,99302.38
2023-01-13T00:42:44.163Z,99306.94
2023-01-13T00:45:10.936Z,99297.00
2023-01-13T00:47:37.418Z,99298.91
2023-01-13T00:50:04.095Z,99291.88
2023-01-13T00:52:31.729Z,99289.88
2023-01-13T00:54:58.197Z,99288.13
2023-01-13T00:57:24.713Z,99300.47
2023-01-13T00:59:51.252Z,99285.13
2023-01-13T01:02:17.926Z,99287.53
2023-01-13T01:04:44.461Z,99290.47
2023-01-13T01:07:10.991Z,99289.22
2023-01-13T01:09:39.560Z,99275.22
2023-01-13T01:12:06.156Z,99278.16
2023-01-13T01:14:33.717Z,99282.72
2023-01-13T01:17:00.194Z,99288.38
2023-01-13T01:19:26.689Z,99298.09
2023-01-13T01:21:53.231Z,99282.72
2023-01-13T01:24:19.743Z,99293.50
2023-01-13T01:26:46.271Z,99290.81
2023-01-13T01:29:15.631Z,99305.91
2023-01-13T01:31:43.348Z,99287.06
2023-01-13T01:34:10.042Z,99290.28
2023-01-13T01:36:36.780Z,99282.66
2023-01-13T01:39:04.145Z,99281.63
2023-01-13T01:41:32.955Z,99295.59
2023-01-13T01:44:06.898Z,99298.81
2023-01-13T01:46:35.763Z,99303.06
2023-01-13T01:49:04.970Z,99308.00
2023-01-13T01:51:36.832Z,99294.56
2023-01-13T01:54:06.341Z,99299.34
2023-01-13T01:56:33.972Z,99314.41
2023-01-13T01:59:01.051Z,99275.66
2023-01-13T02:01:28.461Z,99298.06
2023-01-13T02:04:01.643Z,99296.72
2023-01-13T02:06:30.483Z,99295.66
2023-01-13T02:08:59.031Z,99297.25
2023-01-13T02:11:50.214Z,99289.97
2023-01-13T02:14:17.256Z,99281.84
2023-01-13T02:16:54.629Z,99280.00
2023-01-13T02:19:58.459Z,99278.16
2023-01-13T02:22:55.984Z,99277.03
2023-01-13T02:25:34.685Z,99285.38
2023-01-13T02:28:16.419Z,99271.31
2023-01-13T02:31:07.960Z,99280.44
2023-01-13T02:33:50.296Z,99275.38
2023-01-13T02:36:30.327Z,99291.22
2023-01-13T02:39:01.011Z,99272.03
2023-01-13T02:41:48.626Z,99273.91
2023-01-13T02:44:20.360Z,99271.50
2023-01-13T02:46:53.916Z,99278.78
2023-01-13T02:49:44.344Z,99272.09
2023-01-13T02:52:16.674Z,99274.44
2023-01-13T02:54:47.908Z,99259.34
2023-01-13T02:57:17.562Z,99262.56
2023-01-13T02:59:44.349Z,99267.91
2023-01-13T03:02:16.543Z,99281.41
2023-01-13T03:04:49.983Z,99256.63
2023-01-13T03:07:40.029Z,99266.31
2023-01-13T03:10:25.038Z,99286.81
2023-01-13T03:13:40.128Z,99285.78
2023-01-13T03:16:15.572Z,99285.25
2023-01-13T03:18:44.942Z,99304.59
2023-01-13T03:21:35.211Z,99296.34
2023-01-13T03:24:20.114Z,99308.97
2023-01-13T03:26:51.816Z,99296.34
2023-01-13T03:29:24.464Z,99300.91
2023-01-13T03:31:59.368Z,99298.25
2023-01-13T03:34:33.816Z,99309.53
2023-01-13T03:37:04.452Z,99302.81
2023-01-13T03:39:35.383Z,99308.50
2023-01-13T03:42:07.588Z,99308.50
2023-01-13T03:44:40.211Z,99325.69
2023-01-13T03:47:18.684Z,99333.28
2023-01-13T03:49:53.463Z,99333.81
2023-01-13T03:52:31.055Z,99293.44
2023-01-13T03:55:07.719Z,99265.44
2023-01-13T03:57:40.218Z,99291.31
2023-01-13T04:00:11.119Z,99295.06
2023-01-13T04:02:56.182Z,99291.53
2023-01-13T04:05:23.075Z,99304.44
2023-01-13T04:07:52.939Z,99310.91
2023-01-13T04:10:45.608Z,99306.44
2023-01-13T04:13:16.498Z,99282.09
2023-01-13T04:15:45.390Z,99289.59
2023-01-13T04:18:24.620Z,99293.16
2023-01-13T04:20:53.479Z,99272.09
2023-01-13T04:23:21.750Z,99284.22
2023-01-13T04:25:49.323Z,99288.50
2023-01-13T04:28:16.740Z,99287.69
2023-01-13T04:30:44.119Z,99293.88
2023-01-13T04:33:11.506Z,99297.66
2023-01-13T04:35:38.569Z,99290.66
2023-01-13T04:38:11.190Z,99296.34
2023-01-13T04:40:37.767Z,99282.00
2023-01-13T04:43:04.538Z,99293.84
2023-01-13T04:45:31.319Z,99291.66
2023-01-13T04:47:57.923Z,99318.38
2023-01-13T04:50:24.561Z,99312.19
2023-01-13T04:52:52.562Z,99314.31
2023-01-13T04:55:20.624Z,99309.19
2023-01-13T04:57:47.185Z,99307.88
2023-01-13T05:00:15.884Z,99301.41
2023-01-13T05:02:42.454Z,99299.00
2023-01-13T05:05:09.447Z,99304.66
2023-01-13T05:07:36.015Z,99308.44
2023-01-13T05:10:02.743Z,99316.25
2023-01-13T05:12:47.973Z,99335.09
2023-01-13T05:15:34.084Z,99321.91
2023-01-13T05:18:01.846Z,99320.81
2023-01-13T05:20:28.444Z,99311.66
2023-01-13T05:23:30.165Z,99323.00
2023-01-13T05:25:56.636Z,99319.22
2023-01-13T05:28:23.087Z,99320.59
2023-01-13T05:30:49.801Z,99325.75
2023-01-13T05:33:17.649Z,99336.47
2023-01-13T05:35:45.990Z,99329.53
2023-01-13T05:38:14.012Z,99320.91
2023-01-13T05:40:59.830Z,99317.09
2023-01-13T05:43:27.471Z,99320.06
2023-01-13T05:45:58.285Z,99310.06
2023-01-13T05:48:27.763Z,99298.19
2023-01-13T05:50:54.940Z,99307.81
2023-01-13T05:53:22.235Z,99323.44
2023-01-13T05:55:48.795Z,99323.88
2023-01-13T05:58:17.140Z,99316.91
2023-01-13T06:00:43.654Z,99322.25
2023-01-13T06:03:10.987Z,99322.72
2023-01-13T06:05:38.110Z,99324.84
2023-01-13T06:08:06.773Z,99315.91
2023-01-13T06:10:34.399Z,99332.53
2023-01-13T06:13:01.222Z,99321.97
2023-01-13T06:15:27.803Z,99324.41
2023-01-13T06:17:54.756Z,99336.41
2023-01-13T06:20:21.270Z,99323.97
2023-01-13T06:22:49.932Z,99326.19
2023-01-13T06:25:20.311Z,99365.72
2023-01-13T06:27:46.853Z,99344.19
2023-01-13T06:30:13.499Z,99326.75
2023-01-13T06:32:41.961Z,99336.41
2023-01-13T06:35:13.497Z,99341.44
2023-01-13T06:37:43.965Z,99349.44
2023-01-13T06:40:13.816Z,99345.69
2023-01-13T06:42:59.249Z,99342.63
2023-01-13T06:45:27.490Z,99341.50
2023-01-13T06:47:54.683Z,99334.75
2023-01-13T06:50:21.158Z,99319.69
2023-01-13T06:52:47.611Z,99320.69
2023-01-13T06:55:14.203Z,99330.94
2023-01-13T06:57:54.883Z,99325.06
2023-01-13T07:00:23.063Z,99347.56
2023-01-13T07:02:50.155Z,99328.97
2023-01-13T07:05:18.392Z,99326.25
2023-01-13T07:07:45.263Z,99331.13
2023-01-13T07:10:14.407Z,99341.88
2023-01-13T07:13:00.233Z,99339.44
2023-01-13T07:15:27.138Z,99346.44
2023-01-13T07:17:53.893Z,99339.91
2023-01-13T07:20:20.314Z,99338.69
2023-01-13T07:22:46.778Z,99344.81
2023-01-13T07:25:13.362Z,99340.00
2023-01-13T07:27:39.843Z,99335.69
2023-01-13T07:30:07.613Z,99331.38
2023-01-13T07:32:34.165Z,99338.63
2023-01-13T07:35:05.337Z,99358.25
2023-01-13T07:37:37.491Z,99360.94
2023-01-13T07:40:05.078Z,99354.19
2023-01-13T07:42:50.026Z,99357.69
2023-01-13T07:45:16.542Z,99356.63
2023-01-13T07:47:42.994Z,99357.19
2023-01-13T07:50:10.007Z,99347.97
2023-01-13T07:52:36.449Z,99359.50
2023-01-13T07:55:03.061Z,99345.81
2023-01-13T07:57:29.489Z,99351.19
2023-01-13T07:59:56.021Z,99349.56
2023-01-13T08:02:22.808Z,99354.91
2023-01-13T08:04:49.551Z,99356.81
2023-01-13T08:07:16.074Z,99353.31
2023-01-13T08:09:42.526Z,99354.91
2023-01-13T08:12:27.472Z,99368.63
2023-01-13T08:14:54.151Z,99355.44
2023-01-13T08:17:20.815Z,99367.06
2023-01-13T08:19:47.529Z,99372.69
2023-01-13T08:22:13.995Z,99365.25
2023-01-13T08:24:40.525Z,99367.06
2023-01-13T08:27:07.070Z,99369.19
2023-01-13T08:29:33.604Z,99369.44
2023-01-13T08:32:00.149Z,99387.34
2023-01-13T08:34:26.573Z,99373.91
2023-01-13T08:36:53.069Z,99393.06
2023-01-13T08:39:19.708Z,99388.19
2023-01-13T08:41:55.290Z,99392.00
2023-01-13T08:44:24.028Z,99398.69
2023-01-13T08:46:50.685Z,99415.84
2023-01-13T08:49:17.724Z,99390.34
2023-01-13T08:51:44.543Z,99397.84
2023-01-13T08:54:11.741Z,99398.59
2023-01-13T08:56:39.251Z,99386.56
2023-01-13T08:59:06.143Z,99407.97
2023-01-13T09:01:34.094Z,99411.25
2023-01-13T09:04:00.720Z,99400.25
2023-01-13T09:06:27.262Z,99420.91
2023-01-13T09:08:53.723Z,99397.63
2023-01-13T09:11:44.790Z,99409.69
2023-01-13T09:14:11.235Z,99404.84
2023-01-13T09:16:37.676Z,99389.31
2023-01-13T09:19:04.143Z,99392.56
2023-01-13T09:21:30.617Z,99389.31
2023-01-13T09:23:57.171Z,99399.75
2023-01-13T09:26:23.604Z,99405.44
2023-01-13T09:28:50.351Z,99402.81
2023-01-13T09:31:16.780Z,99445.84
2023-01-13T09:34:01.984Z,99410.81
2023-01-13T09:36:28.454Z,99424.50
2023-01-13T09:38:54.895Z,99400.06
2023-01-13T09:41:42.461Z,99437.94
2023-01-13T09:44:22.529Z,99409.59
2023-01-13T09:46:56.427Z,99422.78
2023-01-13T09:49:29.075Z,99434.25
2023-01-13T09:52:14.076Z,99412.91
2023-01-13T09:54:55.789Z,99420.88
2023-01-13T09:57:22.285Z,99404.25
2023-01-13T09:59:48.820Z,99404.94
2023-01-13T10:02:36.414Z,99410.78
2023-01-13T10:05:22.706Z,99416.47
2023-01-13T10:07:52.770Z,99403.28
2023-01-13T10:10:49.236Z,99428.28
2023-01-13T10:13:20.380Z,99408.72
2023-01-13T10:16:00.201Z,99426.56
2023-01-13T10:18:57.777Z,99411.63
2023-01-13T10:21:48.812Z,99427.50
2023-01-13T10:24:35.546Z,99417.28
2023-01-13T10:27:13.138Z,99427.34
2023-01-13T10:29:39.640Z,99412.34
2023-01-13T10:32:06.134Z,99423.75
2023-01-13T10:34:52.504Z,99429.53
2023-01-13T10:37:24.372Z,99413.00
2023-01-13T10:39:55.024Z,99422.38
2023-01-13T10:42:24.093Z,99428.03
2023-01-13T10:44:58.177Z,99425.00
2023-01-13T10:47:32.777Z,99444.69
2023-01-13T10:50:11.100Z,99429.78
2023-01-13T10:52:43.099Z,99468.75
2023-01-13T10:55:57.711Z,99424.38
2023-01-13T10:58:25.416Z,99435.06
2023-01-13T11:01:01.367Z,99453.88
2023-01-13T11:03:36.988Z,99434.00
2023-01-13T11:06:03.835Z,99450.50
2023-01-13T11:08:42.168Z,99439.88
2023-01-13T11:11:43.966Z,99437.75
2023-01-13T11:14:37.080Z,99448.19
2023-01-13T11:17:10.370Z,99444.75
2023-01-13T11:19:42.762Z,99435.31
2023-01-13T11:22:23.670Z,99455.00
2023-01-13T11:25:04.730Z,99445.75
2023-01-13T11:27:43.759Z,99442.97
2023-01-13T11:30:30.784Z,99444.63
2023-01-13T11:33:15.823Z,99442.13
2023-01-13T11:35:47.881Z,99458.13
2023-01-13T11:38:27.328Z,99454.56
2023-01-13T11:40:56.427Z,99467.75
2023-01-13T11:43:51.732Z,99452.31
2023-01-13T11:46:19.941Z,99452.75
2023-01-13T11:48:46.589Z,99475.44
2023-01-13T11:51:24.054Z,99452.06
2023-01-13T11:54:10.899Z,99452.31
2023-01-13T11:57:04.778Z,99462.03
2023-01-13T11:59:40.360Z,99457.38
2023-01-13T12:02:46.976Z,99456.66
2023-01-13T12:05:40.911Z,99464.81
2023-01-13T12:08:41.575Z,99460.31
2023-01-13T12:11:18.976Z,99436.63
2023-01-13T12:14:10.668Z,99452.50
2023-01-13T12:16:47.647Z,99444.13
2023-01-13T12:19:29.757Z,99461.59
2023-01-13T12:22:09.740Z,99446.31
2023-01-13T12:25:14.903Z,99462.53
2023-01-13T12:27:52.318Z,99457.25
2023-01-13T12:30:32.306Z,99443.63
2023-01-13T12:33:09.689Z,99451.19
2023-01-13T12:35:41.725Z,99436.63
2023-01-13T12:38:21.199Z,99421.94
2023-01-13T12:41:03.656Z,99435.66
2023-01-13T12:43:50.040Z,99411.47
2023-01-13T12:46:19.315Z,99435.47
2023-01-13T12:48:51.007Z,99443.28
2023-01-13T12:51:56.932Z,99418.13
2023-01-13T12:54:42.580Z,99431.97
2023-01-13T12:57:26.961Z,99431.97
2023-01-13T12:59:59.756Z,99423.63
2023-01-13T13:02:32.458Z,99422.59
2023-01-13T13:05:14.427Z,99426.28
2023-01-13T13:08:09.127Z,99430.66
2023-01-13T13:10:40.391Z,99417.75
2023-01-13T13:13:20.433Z,99437.59
2023-01-13T13:15:49.242Z,99429.53
2023-01-13T13:18:20.445Z,99432.22
2023-01-13T13:20:58.204Z,99439.97
2023-01-13T13:23:35.779Z,99438.66
2023-01-13T13:26:14.489Z,99443.00
2023-01-13T13:28:54.604Z,99448.22
2023-01-13T13:31:41.130Z,99435.38
2023-01-13T13:34:32.034Z,99433.34
2023-01-13T13:37:22.829Z,99470.19
2023-01-13T13:40:09.371Z,99422.66
2023-01-13T13:43:01.349Z,99444.13
2023-01-13T13:45:47.359Z,99462.91
2023-01-13T13:48:25.284Z,99468.75
2023-01-13T13:51:01.400Z,99469.94
2023-01-13T13:53:33.620Z,99451.41
2023-01-13T13:56:02.292Z,99467.63
2023-01-13T13:58:31.380Z,99477.25
2023-01-13T14:00:59.833Z,99474.00
2023-01-13T14:03:32.511Z,99473.75
2023-01-13T14:06:02.761Z,99470.41
2023-01-13T14:08:33.157Z,99476.88
2023-01-13T14:11:00.371Z,99481.09
2023-01-13T14:13:32.117Z,99486.53
2023-01-13T14:16:14.648Z,99487.69
2023-01-13T14:18:45.585Z,99491.28
2023-01-13T14:21:27.858Z,99496.41
2023-01-13T14:24:01.996Z,99496.56
2023-01-13T14:26:31.537Z,99517.59
2023-01-13T14:29:01.892Z,99524.19
2023-01-13T14:31:29.513Z,99528.06
2023-01-13T14:33:58.633Z,99525.47
2023-01-13T14:36:35.995Z,99526.59
2023-01-13T14:39:05.642Z,99530.66
2023-01-13T14:41:36.935Z,99524.50
2023-01-13T14:44:42.831Z,99533.00
2023-01-13T14:47:29.076Z,99531.97
2023-01-13T14:50:19.380Z,99533.66
2023-01-13T14:52:54.518Z,99530.38
2023-01-13T14:55:34.000Z,99543.16
2023-01-13T14:58:22.116Z,99546.75
2023-01-13T15:00:50.588Z,99562.25
2023-01-13T15:03:19.680Z,99561.19
2023-01-13T15:05:49.452Z,99551.25
2023-01-13T15:08:17.352Z,99571.44
2023-01-13T15:10:54.727Z,99579.25
2023-01-13T15:13:26.436Z,99566.06
2023-01-13T15:15:56.215Z,99573.09
2023-01-13T15:18:22.878Z,99580.38
2023-01-13T15:20:51.056Z,99576.63
2023-01-13T15:23:19.452Z,99613.53
2023-01-13T15:25:47.156Z,99595.66
2023-01-13T15:28:24.557Z,99605.56
2023-01-13T15:30:53.963Z,99591.56
2023-01-13T15:33:22.253Z,99598.09
2023-01-13T15:35:52.539Z,99599.75
2023-01-13T15:38:21.582Z,99613.88
2023-01-13T15:40:51.987Z,99620.63
2023-01-13T15:43:41.092Z,99610.94
2023-01-13T15:46:35.444Z,99619.09
2023-01-13T15:49:09.842Z,99616.06
2023-01-13T15:51:37.203Z,99616.44
2023-01-13T15:54:03.756Z,99613.53
2023-01-13T15:56:30.560Z,99627.06
2023-01-13T15:58:57.463Z,99636.09
2023-01-13T16:01:24.369Z,99627.06
2023-01-13T16:03:52.245Z,99670.13
2023-01-13T16:06:23.701Z,99642.56
2023-01-13T16:08:50.308Z,99643.06
2023-01-13T16:11:17.127Z,99648.91
2023-01-13T16:13:43.711Z,99637.09
2023-01-13T16:16:19.300Z,99644.97
2023-01-13T16:18:46.132Z,99649.22
2023-01-13T16:21:14.166Z,99653.19
2023-01-13T16:23:41.242Z,99659.03
2023-01-13T16:26:17.534Z,99635.25
2023-01-13T16:28:44.197Z,99666.16
2023-01-13T16:31:32.402Z,99654.72
2023-01-13T16:34:03.370Z,99665.22
2023-01-13T16:36:33.327Z,99666.16
2023-01-13T16:39:01.881Z,99667.69
2023-01-13T16:41:28.478Z,99670.94
2023-01-13T16:43:55.092Z,99680.88
2023-01-13T16:46:30.344Z,99675.81
2023-01-13T16:49:01.505Z,99691.69
2023-01-13T16:51:28.113Z,99690.66
2023-01-13T16:53:54.732Z,99689.47
2023-01-13T16:56:25.364Z,99686.78
2023-01-13T16:58:54.319Z,99692.75
2023-01-13T17:01:32.276Z,99699.44
2023-01-13T17:03:59.839Z,99681.78
2023-01-13T17:06:38.957Z,99700.34
2023-01-13T17:09:08.204Z,99709.91
2023-01-13T17:11:34.942Z,99726.22
2023-01-13T17:14:02.746Z,99724.97
2023-01-13T17:16:45.527Z,99741.06
2023-01-13T17:21:40.149Z,99745.25
2023-01-13T17:24:07.986Z,99735.94
2023-01-13T17:26:49.392Z,99742.56
2023-01-13T17:29:22.435Z,99749.59
2023-01-13T17:31:52.871Z,99745.81
2023-01-13T17:34:21.077Z,99751.56
2023-01-13T17:36:48.186Z,99757.03
2023-01-13T17:39:20.588Z,99768.69
2023-01-13T17:41:47.945Z,99776.88
2023-01-13T17:44:16.266Z,99787.38
2023-01-13T17:46:43.755Z,99780.75
2023-01-13T17:49:14.676Z,99790.88
2023-01-13T17:51:41.553Z,99795.09
2023-01-13T17:54:12.122Z,99799.63
2023-01-13T17:56:42.739Z,99808.63
2023-01-13T17:59:11.786Z,99820.88
2023-01-13T18:01:39.146Z,99818.09
2023-01-13T18:04:06.940Z,99828.81
2023-01-13T18:06:33.900Z,99816.81
2023-01-13T18:09:00.998Z,99825.19
2023-01-13T18:11:27.869Z,99818.44
2023-01-13T18:13:57.045Z,99826.50
2023-01-13T18:16:25.189Z,99829.63
2023-01-13T18:18:53.517Z,99828.81
2023-01-13T18:21:43.632Z,99839.47
2023-01-13T18:24:33.782Z,99852.66
2023-01-13T18:27:19.194Z,99843.06
2023-01-13T18:29:46.420Z,99852.75
2023-01-13T18:32:13.462Z,99840.38
2023-01-13T18:34:40.074Z,99867.06
2023-01-13T18:37:08.310Z,99857.50
2023-01-13T18:39:37.324Z,99856.47
2023-01-13T18:42:23.764Z,99860.59
2023-01-13T18:44:50.239Z,99850.66
2023-01-13T18:47:16.747Z,99859.75
2023-01-13T18:49:43.211Z,99879.59
2023-01-13T18:52:10.172Z,99884.50
2023-01-13T18:54:36.754Z,99865.56
2023-01-13T18:57:03.431Z,99851.84
2023-01-13T18:59:31.074Z,99877.88
2023-01-13T19:01:58.474Z,99892.69
2023-01-13T19:04:25.049Z,99884.50
2023-01-13T19:06:51.935Z,99882.53
2023-01-13T19:09:24.658Z,99882.53
2023-01-13T19:11:52.317Z,99886.84
2023-01-13T19:14:35.059Z,99892.69
2023-01-13T19:17:02.302Z,99890.59
2023-01-13T19:19:29.770Z,99905.19
2023-01-13T19:21:56.474Z,99894.34
2023-01-13T19:24:23.184Z,99907.91
2023-01-13T19:26:49.750Z,99908.94
2023-01-13T19:29:16.283Z,99892.94
2023-01-13T19:31:42.719Z,99908.34
2023-01-13T19:34:09.612Z,99898.78
2023-01-13T19:36:36.208Z,99912.44
2023-01-13T19:39:02.901Z,99928.16
2023-01-13T19:41:47.792Z,99915.41
2023-01-13T19:44:32.794Z,99910.13
2023-01-13T19:46:59.237Z,99914.88
2023-01-13T19:49:25.709Z,99950.72
2023-01-13T19:51:52.173Z,99942.44
2023-01-13T19:54:18.621Z,99943.59
2023-01-13T19:56:45.092Z,99951.44
2023-01-13T19:59:13.480Z,99947.22
2023-01-13T20:01:41.177Z,99958.56
2023-01-13T20:04:14.150Z,99967.19
2023-01-13T20:06:41.101Z,99963.09
2023-01-13T20:09:07.599Z,99969.44
2023-01-13T20:11:34.152Z,99982.13
2023-01-13T20:14:01.552Z,99960.78
2023-01-13T20:16:29.427Z,99972.13
2023-01-13T20:18:56.623Z,99976.44
2023-01-13T20:21:23.303Z,99975.88
2023-01-13T20:23:50.767Z,99986.78
2023-01-13T20:26:18.086Z,99980.44
2023-01-13T20:28:44.922Z,99985.44
2023-01-13T20:31:13.355Z,99981.59
2023-01-13T20:33:40.351Z,99989.28
2023-01-13T20:36:07.982Z,99981.59
2023-01-13T20:38:37.906Z,99992.91
2023-01-13T20:41:24.832Z,99987.16
2023-01-13T20:43:54.411Z,99994.31
2023-01-13T20:46:22.808Z,100010.81
2023-01-13T20:48:49.420Z,99994.69
2023-01-13T20:51:16.001Z,100003.69
2023-01-13T20:53:42.524Z,99999.59
2023-01-13T20:56:09.997Z,100005.78
2023-01-13T20:58:39.212Z,100016.06
2023-01-13T21:01:05.869Z,100019.00
2023-01-13T21:03:32.446Z,100007.00
2023-01-13T21:05:58.951Z,100004.88
2023-01-13T21:08:25.525Z,100010.72
2023-01-13T21:10:52.046Z,100010.25
2023-01-13T21:13:37.254Z,100011.63
2023-01-13T21:16:04.070Z,100015.59
2023-01-13T21:18:49.179Z,100018.28
2023-01-13T21:21:16.292Z,100025.31
2023-01-13T21:23:46.915Z,100020.97
2023-01-13T21:26:15.614Z,100023.09
2023-01-13T21:28:44.346Z,100036.16
2023-01-13T21:31:10.935Z,100036.97
2023-01-13T21:33:40.289Z,100039.22
2023-01-13T21:36:07.707Z,100049.13
2023-01-13T21:38:34.398Z,100040.69
2023-01-13T21:41:07.226Z,100039.94
2023-01-13T21:43:53.488Z,100035.91
2023-01-13T21:46:40.391Z,100048.31
